createdAt,value
2018-10-12T00:00:47.565Z,100024
2018-10-12T00:01:52.999Z,100027
2018-10-12T00:02:58.473Z,100030
2018-10-12T00:04:04.177Z,100024
2018-10-12T00:05:09.121Z,100030
2018-10-12T00:06:13.723Z,100027
2018-10-12T00:07:19.526Z,100024
2018-10-12T00:08:24.966Z,100021
2018-10-12T00:09:30.688Z,100030
2018-10-12T00:10:35.819Z,100030
2018-10-12T00:11:41.015Z,100030
2018-10-12T00:12:46.479Z,100030
2018-10-12T00:13:51.360Z,100036
2018-10-12T00:14:56.526Z,100038
2018-10-12T00:16:01.749Z,100033
2018-10-12T00:17:06.080Z,100030
2018-10-12T00:18:11.553Z,100030
2018-10-12T00:19:17.106Z,100033
2018-10-12T00:20:22.264Z,100036
2018-10-12T00:21:28.156Z,100041
2018-10-12T00:22:33.161Z,100041
2018-10-12T00:23:38.599Z,100041
2018-10-12T00:24:43.764Z,100030
2018-10-12T00:25:49.233Z,100038
2018-10-12T00:26:54.409Z,100036
2018-10-12T00:27:59.873Z,100024
2018-10-12T00:29:05.337Z,100024
2018-10-12T00:30:10.508Z,100030
2018-10-12T00:31:15.960Z,100041
2018-10-12T00:32:21.270Z,100036
2018-10-12T00:33:27.061Z,100044
2018-10-12T00:34:32.229Z,100041
2018-10-12T00:35:37.386Z,100041
2018-10-12T00:36:43.069Z,100047
2018-10-12T00:37:48.343Z,100047
2018-10-12T00:38:53.304Z,100044
2018-10-12T00:39:59.155Z,100044
2018-10-12T00:41:04.594Z,100050
2018-10-12T00:42:09.840Z,100038
2018-10-12T00:43:15.645Z,100047
2018-10-12T00:44:20.908Z,100044
2018-10-12T00:45:40.823Z,100047
2018-10-12T00:46:46.029Z,100044
2018-10-12T00:47:50.704Z,100059
2018-10-12T00:48:55.848Z,100050
2018-10-12T00:50:00.804Z,100047
2018-10-12T00:51:05.704Z,100062
2018-10-12T00:52:10.850Z,100047
2018-10-12T00:53:16.013Z,100056
2018-10-12T00:54:21.202Z,100059
2018-10-12T00:55:26.471Z,100067
2018-10-12T00:56:32.006Z,100067
2018-10-12T00:57:37.866Z,100062
2018-10-12T00:58:43.064Z,100056
2018-10-12T00:59:48.217Z,100062
2018-10-12T01:00:53.743Z,100067
2018-10-12T01:01:58.675Z,100075
2018-10-12T01:03:03.562Z,100075
2018-10-12T01:04:08.720Z,100056
2018-10-12T01:05:14.246Z,100062
2018-10-12T01:06:19.501Z,100078
2018-10-12T01:07:25.206Z,100070
2018-10-12T01:08:30.118Z,100067
2018-10-12T01:09:36.102Z,100070
2018-10-12T01:10:40.962Z,100075
2018-10-12T01:11:45.844Z,100067
2018-10-12T01:12:51.653Z,100087
2018-10-12T01:13:56.868Z,100065
2018-10-12T01:15:01.807Z,100081
2018-10-12T01:16:07.421Z,100075
2018-10-12T01:17:12.013Z,100078
2018-10-12T01:18:17.175Z,100078
2018-10-12T01:19:22.878Z,100084
2018-10-12T01:20:28.051Z,100084
2018-10-12T01:21:33.759Z,100078
2018-10-12T01:22:39.193Z,100070
2018-10-12T01:23:44.643Z,100081
2018-10-12T01:24:50.003Z,100090
2018-10-12T01:25:55.457Z,100090
2018-10-12T01:27:00.630Z,100090
2018-10-12T01:28:05.494Z,100081
2018-10-12T01:29:10.651Z,100084
2018-10-12T01:30:15.600Z,100090
2018-10-12T01:31:20.731Z,100084
2018-10-12T01:32:25.899Z,100081
2018-10-12T01:33:31.548Z,100084
2018-10-12T01:34:36.714Z,100078
2018-10-12T01:35:42.159Z,100078
2018-10-12T01:36:47.859Z,100084
2018-10-12T01:37:51.896Z,100081
2018-10-12T01:38:57.378Z,100084
2018-10-12T01:40:02.607Z,100093
2018-10-12T01:41:07.489Z,100078
2018-10-12T01:42:12.109Z,100084
2018-10-12T01:43:17.253Z,100081
2018-10-12T01:44:22.707Z,100075
2018-10-12T01:45:27.835Z,100078
2018-10-12T01:46:32.985Z,100081
2018-10-12T01:47:38.483Z,100078
2018-10-12T01:48:44.338Z,100099
2018-10-12T01:49:49.283Z,100078
2018-10-12T01:50:54.493Z,100090
2018-10-12T01:52:00.337Z,100078
2018-10-12T01:53:05.525Z,100081
2018-10-12T01:54:10.974Z,100087
2018-10-12T01:55:16.087Z,100067
2018-10-12T01:56:21.528Z,100084
2018-10-12T01:57:41.300Z,100070
2018-10-12T01:58:46.745Z,100084
2018-10-12T01:59:52.190Z,100075
2018-10-12T02:00:57.704Z,100078
2018-10-12T02:02:03.341Z,100075
2018-10-12T02:03:07.684Z,100075
2018-10-12T02:04:13.288Z,100075
2018-10-12T02:05:18.786Z,100075
2018-10-12T02:06:24.278Z,100078
2018-10-12T02:07:44.550Z,100059
2018-10-12T02:08:49.704Z,100059
2018-10-12T02:09:55.329Z,100070
2018-10-12T02:11:00.994Z,100067
2018-10-12T02:12:05.866Z,100065
2018-10-12T02:13:11.293Z,100065
2018-10-12T02:14:16.800Z,100065
2018-10-12T02:15:21.420Z,100070
2018-10-12T02:16:26.716Z,100075
2018-10-12T02:17:32.253Z,100070
2018-10-12T02:18:38.135Z,100059
2018-10-12T02:19:43.302Z,100070
2018-10-12T02:20:48.863Z,100078
2018-10-12T02:21:54.603Z,100078
2018-10-12T02:23:00.046Z,100075
2018-10-12T02:24:05.210Z,100084
2018-10-12T02:25:10.335Z,100075
2018-10-12T02:26:15.547Z,100067
2018-10-12T02:27:20.491Z,100075
2018-10-12T02:28:26.290Z,100075
2018-10-12T02:29:31.416Z,100081
2018-10-12T02:30:36.479Z,100078
2018-10-12T02:31:41.909Z,100081
2018-10-12T02:32:47.463Z,100075
2018-10-12T02:33:53.173Z,100081
2018-10-12T02:34:58.609Z,100084
2018-10-12T02:36:03.802Z,100078
2018-10-12T02:37:08.458Z,100078
2018-10-12T02:38:13.613Z,100084
2018-10-12T02:39:19.048Z,100081
2018-10-12T02:40:24.967Z,100084
2018-10-12T02:41:30.126Z,100087
2018-10-12T02:42:35.852Z,100075
2018-10-12T02:43:41.367Z,100075
2018-10-12T02:44:46.805Z,100075
2018-10-12T02:45:52.496Z,100084
2018-10-12T02:46:57.679Z,100078
2018-10-12T02:48:02.830Z,100081
2018-10-12T02:49:08.687Z,100081
2018-10-12T02:50:13.960Z,100075
2018-10-12T02:51:18.705Z,100090
2018-10-12T02:52:23.690Z,100096
2018-10-12T02:53:29.124Z,100093
2018-10-12T02:54:34.687Z,100093
2018-10-12T02:55:40.122Z,100090
2018-10-12T02:56:44.574Z,100093
2018-10-12T02:57:49.864Z,100093
2018-10-12T02:58:55.307Z,100090
2018-10-12T03:00:00.467Z,100096
2018-10-12T03:01:05.811Z,100099
2018-10-12T03:02:11.299Z,100099
2018-10-12T03:03:16.506Z,100113
2018-10-12T03:04:22.303Z,100104
2018-10-12T03:05:27.555Z,100110
2018-10-12T03:06:33.139Z,100110
2018-10-12T03:07:38.329Z,100104
2018-10-12T03:08:43.265Z,100113
2018-10-12T03:09:49.104Z,100104
2018-10-12T03:10:54.703Z,100110
2018-10-12T03:12:00.217Z,100110
2018-10-12T03:13:05.865Z,100110
2018-10-12T03:14:11.309Z,100110
2018-10-12T03:15:16.761Z,100116
2018-10-12T03:16:21.892Z,100122
2018-10-12T03:17:26.889Z,100113
2018-10-12T03:18:32.490Z,100119
2018-10-12T03:19:37.688Z,100125
2018-10-12T03:20:43.184Z,100128
2018-10-12T03:21:49.089Z,100133
2018-10-12T03:22:54.546Z,100136
2018-10-12T03:23:59.438Z,100142
2018-10-12T03:25:04.600Z,100133
2018-10-12T03:26:09.482Z,100136
2018-10-12T03:27:14.436Z,100145
2018-10-12T03:28:19.676Z,100142
2018-10-12T03:29:24.556Z,100153
2018-10-12T03:30:29.903Z,100139
2018-10-12T03:31:35.357Z,100147
2018-10-12T03:32:40.798Z,100145
2018-10-12T03:33:46.736Z,100147
2018-10-12T03:34:52.173Z,100139
2018-10-12T03:35:57.317Z,100145
2018-10-12T03:37:02.939Z,100139
2018-10-12T03:38:07.392Z,100142
2018-10-12T03:39:12.649Z,100150
2018-10-12T03:40:18.130Z,100150
2018-10-12T03:41:23.570Z,100142
2018-10-12T03:42:29.407Z,100147
2018-10-12T03:43:34.303Z,100145
2018-10-12T03:44:39.527Z,100150
2018-10-12T03:45:45.224Z,100145
2018-10-12T03:46:50.729Z,100142
2018-10-12T03:47:56.279Z,100150
2018-10-12T03:49:01.676Z,100147
2018-10-12T03:50:06.338Z,100142
2018-10-12T03:51:11.495Z,100147
2018-10-12T03:52:17.300Z,100139
2018-10-12T03:53:22.799Z,100150
2018-10-12T03:54:28.642Z,100145
2018-10-12T03:55:33.806Z,100139
2018-10-12T03:56:39.291Z,100142
2018-10-12T03:57:45.073Z,100145
2018-10-12T03:58:50.593Z,100150
2018-10-12T03:59:56.090Z,100153
2018-10-12T04:01:01.216Z,100153
2018-10-12T04:02:05.835Z,100153
2018-10-12T04:03:10.514Z,100147
2018-10-12T04:04:15.928Z,100142
2018-10-12T04:05:21.122Z,100142
2018-10-12T04:06:27.270Z,100142
2018-10-12T04:07:32.532Z,100150
2018-10-12T04:08:37.712Z,100153
2018-10-12T04:09:43.131Z,100156
2018-10-12T04:10:48.287Z,100150
2018-10-12T04:11:53.743Z,100150
2018-10-12T04:12:59.565Z,100145
2018-10-12T04:14:05.027Z,100150
2018-10-12T04:15:09.912Z,100145
2018-10-12T04:16:15.152Z,100145
2018-10-12T04:17:20.637Z,100153
2018-10-12T04:18:40.992Z,100145
2018-10-12T04:19:46.195Z,100147
2018-10-12T04:20:51.552Z,100145
2018-10-12T04:21:57.397Z,100153
2018-10-12T04:23:02.280Z,100150
2018-10-12T04:24:07.390Z,100176
2018-10-12T04:25:13.226Z,100199
2018-10-12T04:26:18.699Z,100211
2018-10-12T04:27:24.140Z,100193
2018-10-12T04:28:43.916Z,100202
2018-10-12T04:29:49.374Z,100202
2018-10-12T04:30:54.359Z,100190
2018-10-12T04:31:59.580Z,100205
2018-10-12T04:33:04.783Z,100208
2018-10-12T04:34:10.476Z,100196
2018-10-12T04:35:15.754Z,100190
2018-10-12T04:36:20.074Z,100202
2018-10-12T04:37:25.520Z,100190
2018-10-12T04:38:30.677Z,100199
2018-10-12T04:39:36.523Z,100205
2018-10-12T04:40:41.687Z,100210
2018-10-12T04:41:46.896Z,100208
2018-10-12T04:42:52.020Z,100202
2018-10-12T04:43:57.186Z,100210
2018-10-12T04:45:02.421Z,100225
2018-10-12T04:46:08.249Z,100222
2018-10-12T04:47:13.257Z,100231
2018-10-12T04:48:19.126Z,100225
2018-10-12T04:49:24.630Z,100231
2018-10-12T04:50:29.788Z,100225
2018-10-12T04:51:35.661Z,100228
2018-10-12T04:52:40.813Z,100225
2018-10-12T04:53:46.592Z,100228
2018-10-12T04:54:52.954Z,100239
2018-10-12T04:55:58.474Z,100236
2018-10-12T04:57:03.654Z,100234
2018-10-12T04:58:08.817Z,100239
2018-10-12T04:59:13.740Z,100236
2018-10-12T05:00:18.898Z,100228
2018-10-12T05:01:24.592Z,100236
2018-10-12T05:02:30.109Z,100234
2018-10-12T05:03:35.766Z,100228
2018-10-12T05:04:41.002Z,100219
2018-10-12T05:05:46.457Z,100225
2018-10-12T05:06:51.880Z,100239
2018-10-12T05:07:56.509Z,100236
2018-10-12T05:09:02.005Z,100245
2018-10-12T05:10:07.018Z,100251
2018-10-12T05:11:11.637Z,100245
2018-10-12T05:12:16.816Z,100251
2018-10-12T05:13:22.549Z,100242
2018-10-12T05:14:27.183Z,100239
2018-10-12T05:15:32.266Z,100248
2018-10-12T05:16:37.470Z,100260
2018-10-12T05:17:42.699Z,100248
2018-10-12T05:18:48.402Z,100265
2018-10-12T05:19:53.571Z,100260
2018-10-12T05:20:59.120Z,100251
2018-10-12T05:22:05.201Z,100262
2018-10-12T05:23:10.701Z,100260
2018-10-12T05:24:15.876Z,100254
2018-10-12T05:25:21.288Z,100260
2018-10-12T05:26:26.533Z,100268
2018-10-12T05:27:31.934Z,100259
2018-10-12T05:28:37.386Z,100262
2018-10-12T05:29:42.817Z,100262
2018-10-12T05:30:48.300Z,100262
2018-10-12T05:31:53.719Z,100277
2018-10-12T05:32:58.936Z,100280
2018-10-12T05:34:04.092Z,100277
2018-10-12T05:35:09.303Z,100268
2018-10-12T05:36:14.550Z,100274
2018-10-12T05:37:20.344Z,100280
2018-10-12T05:38:25.885Z,100277
2018-10-12T05:39:31.172Z,100283
2018-10-12T05:40:36.070Z,100280
2018-10-12T05:41:41.313Z,100283
2018-10-12T05:42:46.929Z,100288
2018-10-12T05:43:53.062Z,100288
2018-10-12T05:44:58.679Z,100283
2018-10-12T05:46:04.212Z,100290
2018-10-12T05:47:09.404Z,100293
2018-10-12T05:48:14.365Z,100290
2018-10-12T05:49:20.351Z,100302
2018-10-12T05:50:25.590Z,100288
2018-10-12T05:51:31.306Z,100290
2018-10-12T05:52:36.249Z,100283
2018-10-12T05:53:41.781Z,100290
2018-10-12T05:54:47.302Z,100296
2018-10-12T05:55:52.593Z,100296
2018-10-12T05:56:58.507Z,100299
2018-10-12T05:58:04.009Z,100296
2018-10-12T05:59:09.164Z,100296
2018-10-12T06:00:14.413Z,100310
2018-10-12T06:01:19.778Z,100313
2018-10-12T06:02:25.207Z,100308
2018-10-12T06:03:30.804Z,100325
2018-10-12T06:04:36.000Z,100322
2018-10-12T06:05:40.932Z,100325
2018-10-12T06:06:46.646Z,100325
2018-10-12T06:07:51.542Z,100325
2018-10-12T06:08:56.479Z,100334
2018-10-12T06:10:02.349Z,100325
2018-10-12T06:11:07.547Z,100325
2018-10-12T06:12:12.746Z,100319
2018-10-12T06:13:18.435Z,100325
2018-10-12T06:14:23.602Z,100319
2018-10-12T06:15:29.289Z,100319
2018-10-12T06:16:34.856Z,100322
2018-10-12T06:17:39.735Z,100322
2018-10-12T06:18:45.474Z,100334
2018-10-12T06:19:50.399Z,100339
2018-10-12T06:20:55.846Z,100334
2018-10-12T06:22:01.259Z,100344
2018-10-12T06:23:05.623Z,100356
2018-10-12T06:24:10.492Z,100347
2018-10-12T06:25:15.992Z,100342
2018-10-12T06:26:21.168Z,100342
2018-10-12T06:27:27.265Z,100344
2018-10-12T06:28:32.164Z,100342
2018-10-12T06:29:37.399Z,100356
2018-10-12T06:30:43.107Z,100362
2018-10-12T06:31:48.007Z,100353
2018-10-12T06:32:53.707Z,100356
2018-10-12T06:33:59.597Z,100350
2018-10-12T06:35:04.744Z,100356
2018-10-12T06:36:09.671Z,100359
2018-10-12T06:37:14.505Z,100359
2018-10-12T06:38:19.684Z,100353
2018-10-12T06:39:24.603Z,100368
2018-10-12T06:40:45.025Z,100371
2018-10-12T06:41:51.514Z,100362
2018-10-12T06:42:58.018Z,100368
2018-10-12T06:44:03.173Z,100377
2018-10-12T06:45:08.328Z,100368
2018-10-12T06:46:12.967Z,100382
2018-10-12T06:47:17.263Z,100388
2018-10-12T06:48:22.414Z,100382
2018-10-12T06:49:27.829Z,100391
2018-10-12T06:50:32.797Z,100388
2018-10-12T06:51:38.475Z,100388
2018-10-12T06:52:44.035Z,100391
2018-10-12T06:53:49.722Z,100403
2018-10-12T06:54:55.622Z,100406
2018-10-12T06:56:00.642Z,100406
2018-10-12T06:57:05.603Z,100409
2018-10-12T06:58:11.079Z,100406
2018-10-12T06:59:16.239Z,100411
2018-10-12T07:00:21.509Z,100409
2018-10-12T07:01:41.940Z,100409
2018-10-12T07:02:47.099Z,100420
2018-10-12T07:03:53.039Z,100417
2018-10-12T07:04:58.477Z,100423
2018-10-12T07:06:03.665Z,100429
2018-10-12T07:07:09.087Z,100426
2018-10-12T07:08:14.302Z,100426
2018-10-12T07:09:19.751Z,100429
2018-10-12T07:10:24.742Z,100423
2018-10-12T07:11:30.207Z,100423
2018-10-12T07:12:36.106Z,100429
2018-10-12T07:13:41.647Z,100426
2018-10-12T07:14:46.987Z,100429
2018-10-12T07:15:52.497Z,100423
2018-10-12T07:16:57.685Z,100444
2018-10-12T07:18:03.126Z,100435
2018-10-12T07:19:08.552Z,100441
2018-10-12T07:20:13.796Z,100444
2018-10-12T07:21:18.718Z,100438
2018-10-12T07:22:24.412Z,100450
2018-10-12T07:23:29.855Z,100452
2018-10-12T07:24:35.648Z,100455
2018-10-12T07:25:41.102Z,100455
2018-10-12T07:26:46.538Z,100450
2018-10-12T07:27:51.553Z,100464
2018-10-12T07:28:56.440Z,100464
2018-10-12T07:30:02.017Z,100461
2018-10-12T07:31:06.820Z,100461
2018-10-12T07:32:12.252Z,100470
2018-10-12T07:33:17.146Z,100476
2018-10-12T07:34:22.829Z,100481
2018-10-12T07:35:27.790Z,100478
2018-10-12T07:36:33.256Z,100470
2018-10-12T07:37:39.006Z,100473
2018-10-12T07:38:44.319Z,100478
2018-10-12T07:39:49.179Z,100478
2018-10-12T07:40:54.626Z,100473
2018-10-12T07:42:00.062Z,100481
2018-10-12T07:43:05.838Z,100476
2018-10-12T07:44:10.738Z,100487
2018-10-12T07:45:15.891Z,100478
2018-10-12T07:46:21.500Z,100487
2018-10-12T07:47:26.995Z,100484
2018-10-12T07:48:32.371Z,100492
2018-10-12T07:49:37.856Z,100492
2018-10-12T07:50:43.362Z,100495
2018-10-12T07:51:49.104Z,100498
2018-10-12T07:52:54.273Z,100513
2018-10-12T07:53:59.551Z,100513
2018-10-12T07:55:05.360Z,100513
2018-10-12T07:56:10.356Z,100504
2018-10-12T07:57:15.813Z,100501
2018-10-12T07:58:21.238Z,100495
2018-10-12T07:59:26.176Z,100501
2018-10-12T08:00:31.666Z,100495
2018-10-12T08:01:36.535Z,100498
2018-10-12T08:02:41.972Z,100498
2018-10-12T08:03:47.669Z,100498
2018-10-12T08:04:53.137Z,100495
2018-10-12T08:05:58.146Z,100498
2018-10-12T08:07:02.831Z,100493
2018-10-12T08:08:07.136Z,100487
2018-10-12T08:09:12.025Z,100498
2018-10-12T08:10:17.198Z,100495
2018-10-12T08:11:22.454Z,100495
2018-10-12T08:12:28.313Z,100498
2018-10-12T08:13:32.674Z,100498
2018-10-12T08:14:37.686Z,100501
2018-10-12T08:15:43.545Z,100493
2018-10-12T08:16:48.772Z,100495
2018-10-12T08:17:54.323Z,100498
2018-10-12T08:19:00.418Z,100498
2018-10-12T08:20:05.305Z,100493
2018-10-12T08:21:10.494Z,100490
2018-10-12T08:22:16.402Z,100490
2018-10-12T08:23:21.557Z,100495
2018-10-12T08:24:27.078Z,100504
2018-10-12T08:25:31.974Z,100493
2018-10-12T08:26:37.154Z,100507
2018-10-12T08:27:43.218Z,100507
2018-10-12T08:28:48.123Z,100507
2018-10-12T08:29:53.267Z,100507
2018-10-12T08:30:58.746Z,100507
2018-10-12T08:32:04.212Z,100507
2018-10-12T08:33:09.767Z,100504
2018-10-12T08:34:15.026Z,100498
2018-10-12T08:35:19.997Z,100507
2018-10-12T08:36:25.130Z,100513
2018-10-12T08:37:30.861Z,100504
2018-10-12T08:38:36.103Z,100507
2018-10-12T08:39:41.789Z,100496
2018-10-12T08:40:46.696Z,100510
2018-10-12T08:41:51.879Z,100510
2018-10-12T08:42:58.042Z,100519
2018-10-12T08:44:03.796Z,100519
2018-10-12T08:45:09.091Z,100507
2018-10-12T08:46:14.314Z,100516
2018-10-12T08:47:19.764Z,100510
2018-10-12T08:48:40.379Z,100510
2018-10-12T08:49:45.898Z,100513
2018-10-12T08:50:51.334Z,100507
2018-10-12T08:51:56.805Z,100501
2018-10-12T08:53:02.292Z,100516
2018-10-12T08:54:07.160Z,100516
2018-10-12T08:55:12.391Z,100522
2018-10-12T08:56:17.835Z,100504
2018-10-12T08:57:22.992Z,100513
2018-10-12T08:58:28.751Z,100516
2018-10-12T08:59:33.916Z,100522
2018-10-12T09:00:39.605Z,100519
2018-10-12T09:01:44.543Z,100519
2018-10-12T09:02:50.189Z,100522
2018-10-12T09:03:55.421Z,100522
2018-10-12T09:05:00.883Z,100516
2018-10-12T09:06:06.327Z,100528
2018-10-12T09:07:12.132Z,100530
2018-10-12T09:08:17.651Z,100525
2018-10-12T09:09:23.087Z,100525
2018-10-12T09:10:43.499Z,100536
2018-10-12T09:11:49.060Z,100527
2018-10-12T09:12:54.542Z,100527
2018-10-12T09:13:59.819Z,100533
2018-10-12T09:15:05.057Z,100533
2018-10-12T09:16:10.259Z,100527
2018-10-12T09:17:15.196Z,100530
2018-10-12T09:18:20.072Z,100542
2018-10-12T09:19:25.370Z,100530
2018-10-12T09:20:31.346Z,100536
2018-10-12T09:21:37.553Z,100545
2018-10-12T09:22:43.075Z,100551
2018-10-12T09:23:48.448Z,100548
2018-10-12T09:24:53.855Z,100551
2018-10-12T09:25:58.454Z,100548
2018-10-12T09:27:03.351Z,100559
2018-10-12T09:28:08.606Z,100553
2018-10-12T09:29:13.787Z,100562
2018-10-12T09:30:18.823Z,100562
2018-10-12T09:31:25.037Z,100548
2018-10-12T09:32:30.737Z,100550
2018-10-12T09:33:36.134Z,100556
2018-10-12T09:34:41.319Z,100550
2018-10-12T09:35:46.779Z,100550
2018-10-12T09:36:52.533Z,100553
2018-10-12T09:37:57.823Z,100559
2018-10-12T09:39:02.715Z,100559
2018-10-12T09:40:08.444Z,100559
2018-10-12T09:41:13.614Z,100556
2018-10-12T09:42:18.201Z,100559
2018-10-12T09:43:23.755Z,100565
2018-10-12T09:44:29.380Z,100562
2018-10-12T09:45:35.085Z,100556
2018-10-12T09:46:40.247Z,100553
2018-10-12T09:47:45.710Z,100559
2018-10-12T09:48:51.211Z,100553
2018-10-12T09:49:56.652Z,100565
2018-10-12T09:51:01.821Z,100556
2018-10-12T09:52:06.410Z,100553
2018-10-12T09:53:11.313Z,100559
2018-10-12T09:54:16.536Z,100553
2018-10-12T09:55:21.880Z,100553
2018-10-12T09:56:27.035Z,100547
2018-10-12T09:57:32.476Z,100535
2018-10-12T09:58:37.931Z,100556
2018-10-12T09:59:43.139Z,100550
2018-10-12T10:00:48.842Z,100556
2018-10-12T10:01:54.400Z,100559
2018-10-12T10:03:00.784Z,100544
2018-10-12T10:04:06.713Z,100550
2018-10-12T10:05:12.184Z,100556
2018-10-12T10:06:17.901Z,100550
2018-10-12T10:07:23.277Z,100541
2018-10-12T10:08:29.160Z,100544
2018-10-12T10:09:35.795Z,100535
2018-10-12T10:10:40.392Z,100538
2018-10-12T10:11:45.342Z,100541
2018-10-12T10:12:50.738Z,100544
2018-10-12T10:13:56.345Z,100538
2018-10-12T10:15:02.007Z,100553
2018-10-12T10:16:07.193Z,100547
2018-10-12T10:17:12.388Z,100544
2018-10-12T10:18:17.542Z,100550
2018-10-12T10:19:22.806Z,100547
2018-10-12T10:20:29.024Z,100541
2018-10-12T10:21:34.830Z,100544
2018-10-12T10:22:40.003Z,100541
2018-10-12T10:23:44.606Z,100538
2018-10-12T10:24:50.247Z,100532
2018-10-12T10:25:54.978Z,100547
2018-10-12T10:27:00.184Z,100541
2018-10-12T10:28:05.958Z,100541
2018-10-12T10:29:11.683Z,100538
2018-10-12T10:30:16.837Z,100544
2018-10-12T10:31:22.547Z,100544
2018-10-12T10:32:27.701Z,100541
2018-10-12T10:33:33.449Z,100541
2018-10-12T10:34:38.698Z,100529
2018-10-12T10:35:44.158Z,100538
2018-10-12T10:36:49.862Z,100532
2018-10-12T10:37:54.988Z,100535
2018-10-12T10:39:00.384Z,100529
2018-10-12T10:40:06.123Z,100523
2018-10-12T10:41:11.336Z,100535
2018-10-12T10:42:16.418Z,100532
2018-10-12T10:43:21.596Z,100529
2018-10-12T10:44:26.183Z,100526
2018-10-12T10:45:31.636Z,100535
2018-10-12T10:46:36.825Z,100544
2018-10-12T10:47:42.265Z,100538
2018-10-12T10:48:47.729Z,100518
2018-10-12T10:49:53.259Z,100523
2018-10-12T10:50:58.711Z,100529
2018-10-12T10:52:04.148Z,100523
2018-10-12T10:53:09.304Z,100523
2018-10-12T10:54:14.224Z,100523
2018-10-12T10:55:19.352Z,100523
2018-10-12T10:56:24.714Z,100523
2018-10-12T10:57:30.190Z,100526
2018-10-12T10:58:35.762Z,100520
2018-10-12T10:59:40.628Z,100523
2018-10-12T11:00:47.590Z,100512
2018-10-12T11:01:52.858Z,100526
2018-10-12T11:02:57.730Z,100520
2018-10-12T11:04:03.357Z,100515
2018-10-12T11:05:08.806Z,100506
2018-10-12T11:06:14.337Z,100518
2018-10-12T11:07:20.171Z,100509
2018-10-12T11:08:24.765Z,100512
2018-10-12T11:09:29.903Z,100526
2018-10-12T11:10:35.090Z,100512
2018-10-12T11:11:40.573Z,100509
2018-10-12T11:12:46.494Z,100515
2018-10-12T11:13:51.787Z,100509
2018-10-12T11:14:56.945Z,100518
2018-10-12T11:16:01.897Z,100503
2018-10-12T11:17:06.899Z,100509
2018-10-12T11:18:12.106Z,100503
2018-10-12T11:19:17.773Z,100500
2018-10-12T11:20:22.701Z,100503
2018-10-12T11:21:28.230Z,100503
2018-10-12T11:22:33.172Z,100500
2018-10-12T11:23:37.755Z,100488
2018-10-12T11:24:42.613Z,100497
2018-10-12T11:25:48.003Z,100488
2018-10-12T11:26:53.450Z,100497
2018-10-12T11:27:59.844Z,100494
2018-10-12T11:29:05.293Z,100500
2018-10-12T11:30:10.160Z,100494
2018-10-12T11:31:15.890Z,100494
2018-10-12T11:32:21.419Z,100503
2018-10-12T11:33:27.008Z,100494
2018-10-12T11:34:31.931Z,100509
2018-10-12T11:35:36.854Z,100494
2018-10-12T11:36:41.698Z,100497
2018-10-12T11:37:46.852Z,100488
2018-10-12T11:38:52.330Z,100494
2018-10-12T11:39:58.199Z,100488
2018-10-12T11:41:02.799Z,100488
2018-10-12T11:42:07.138Z,100491
2018-10-12T11:43:12.292Z,100486
2018-10-12T11:44:17.769Z,100483
2018-10-12T11:45:23.205Z,100494
2018-10-12T11:46:29.724Z,100491
2018-10-12T11:47:34.950Z,100480
2018-10-12T11:48:40.441Z,100486
2018-10-12T11:49:45.905Z,100483
2018-10-12T11:50:51.480Z,100486
2018-10-12T11:51:57.218Z,100480
2018-10-12T11:53:02.758Z,100477
2018-10-12T11:54:07.937Z,100486
2018-10-12T11:55:13.796Z,100483
2018-10-12T11:56:19.325Z,100483
2018-10-12T11:58:45.116Z,100494
2018-10-12T11:59:50.567Z,100477
2018-10-12T12:00:56.532Z,100483
2018-10-12T12:02:02.118Z,100488
2018-10-12T12:03:07.813Z,100497
2018-10-12T12:04:13.526Z,100486
2018-10-12T12:05:18.499Z,100497
2018-10-12T12:06:23.403Z,100489
2018-10-12T12:07:29.247Z,100491
2018-10-12T12:08:34.702Z,100494
2018-10-12T12:09:40.386Z,100491
2018-10-12T12:10:45.002Z,100503
2018-10-12T12:11:50.507Z,100494
2018-10-12T12:12:56.283Z,100491
2018-10-12T12:14:02.177Z,100503
2018-10-12T12:15:07.188Z,100500
2018-10-12T12:16:12.612Z,100494
2018-10-12T12:17:17.484Z,100491
2018-10-12T12:18:22.360Z,100494
2018-10-12T12:19:28.634Z,100497
2018-10-12T12:20:34.594Z,100497
2018-10-12T12:21:40.096Z,100494
2018-10-12T12:22:45.611Z,100497
2018-10-12T12:23:50.760Z,100494
2018-10-12T12:24:56.281Z,100494
2018-10-12T12:26:01.549Z,100494
2018-10-12T12:27:06.729Z,100494
2018-10-12T12:28:12.489Z,100483
2018-10-12T12:29:17.721Z,100489
2018-10-12T12:30:23.275Z,100489
2018-10-12T12:31:28.993Z,100489
2018-10-12T12:32:34.213Z,100486
2018-10-12T12:33:39.897Z,100492
2018-10-12T12:34:45.474Z,100480
2018-10-12T12:35:52.912Z,100486
2018-10-12T12:37:00.715Z,100477
2018-10-12T12:38:06.151Z,100486
2018-10-12T12:39:11.611Z,100483
2018-10-12T12:40:17.013Z,100492
2018-10-12T12:41:22.534Z,100483
2018-10-12T12:42:28.282Z,100486
2018-10-12T12:43:33.523Z,100480
2018-10-12T12:44:38.413Z,100483
2018-10-12T12:45:43.909Z,100477
2018-10-12T12:46:48.781Z,100483
2018-10-12T12:47:54.771Z,100477
2018-10-12T12:49:02.525Z,100483
2018-10-12T12:50:09.717Z,100475
2018-10-12T12:51:15.159Z,100483
2018-10-12T12:52:20.621Z,100475
2018-10-12T12:53:25.789Z,100475
2018-10-12T12:54:31.672Z,100477
2018-10-12T12:55:36.547Z,100483
2018-10-12T12:56:41.735Z,100486
2018-10-12T12:57:47.431Z,100480
2018-10-12T12:58:52.322Z,100477
2018-10-12T12:59:57.785Z,100477
2018-10-12T13:01:03.556Z,100473
2018-10-12T13:02:08.460Z,100483
2018-10-12T13:03:13.339Z,100475
2018-10-12T13:04:18.750Z,100480
2018-10-12T13:05:23.411Z,100480
2018-10-12T13:06:29.759Z,100475
2018-10-12T13:07:35.221Z,100470
2018-10-12T13:08:40.732Z,100486
2018-10-12T13:09:46.154Z,100480
2018-10-12T13:10:51.600Z,100477
2018-10-12T13:11:57.033Z,100477
2018-10-12T13:13:01.863Z,100486
2018-10-12T13:14:07.028Z,100483
2018-10-12T13:15:11.651Z,100483
2018-10-12T13:16:16.605Z,100486
2018-10-12T13:17:22.130Z,100483
2018-10-12T13:18:28.096Z,100483
2018-10-12T13:19:33.311Z,100477
2018-10-12T13:20:38.189Z,100489
2018-10-12T13:21:43.801Z,100486
2018-10-12T13:22:48.987Z,100501
2018-10-12T13:23:54.437Z,100495
2018-10-12T13:25:00.173Z,100501
2018-10-12T13:26:06.016Z,100486
2018-10-12T13:27:12.744Z,100498
2018-10-12T13:28:18.187Z,100495
2018-10-12T13:29:23.067Z,100492
2018-10-12T13:30:27.930Z,100504
2018-10-12T13:31:33.102Z,100498
2018-10-12T13:32:38.334Z,100495
2018-10-12T13:33:44.151Z,100495
2018-10-12T13:34:49.637Z,100504
2018-10-12T13:35:54.784Z,100501
2018-10-12T13:37:00.477Z,100501
2018-10-12T13:38:05.411Z,100504
2018-10-12T13:39:10.285Z,100501